sensor_id;sensor_type;location;lat;lon;timestamp;pressure;altitude;pressure_sealevel;temperature
26158;BMP280;67284;44.782;10.282;2023-07-29T00:00:35;100637.19;;;25.06
26158;BMP280;67284;44.782;10.282;2023-07-29T00:05:27;100626.66;;;25.06
26158;BMP280;67284;44.782;10.282;2023-07-29T00:10:19;100639.25;;;25.01
26158;BMP280;67284;44.782;10.282;2023-07-29T00:15:12;100622.00;;;24.97
26158;BMP280;67284;44.782;10.282;2023-07-29T00:20:04;100619.69;;;24.92
26158;BMP280;67284;44.782;10.282;2023-07-29T00:24:59;100622.03;;;24.84
26158;BMP280;67284;44.782;10.282;2023-07-29T00:29:51;100622.25;;;24.81
26158;BMP280;67284;44.782;10.282;2023-07-29T00:34:43;100619.69;;;24.80
26158;BMP280;67284;44.782;10.282;2023-07-29T00:39:35;100614.63;;;24.77
26158;BMP280;67284;44.782;10.282;2023-07-29T00:44:28;100625.38;;;24.74
26158;BMP280;67284;44.782;10.282;2023-07-29T00:49:20;100616.97;;;24.69
26158;BMP280;67284;44.782;10.282;2023-07-29T00:54:13;100623.16;;;24.68
26158;BMP280;67284;44.782;10.282;2023-07-29T00:59:05;100625.16;;;24.64
26158;BMP280;67284;44.782;10.282;2023-07-29T01:03:57;100624.31;;;24.64
26158;BMP280;67284;44.782;10.282;2023-07-29T01:09:00;100631.50;;;24.62
26158;BMP280;67284;44.782;10.282;2023-07-29T01:13:58;100641.47;;;24.57
26158;BMP280;67284;44.782;10.282;2023-07-29T01:18:54;100632.53;;;24.47
26158;BMP280;67284;44.782;10.282;2023-07-29T01:23:47;100636.94;;;24.47
26158;BMP280;67284;44.782;10.282;2023-07-29T01:28:39;100625.16;;;24.40
26158;BMP280;67284;44.782;10.282;2023-07-29T01:33:37;100637.66;;;24.36
26158;BMP280;67284;44.782;10.282;2023-07-29T01:38:36;100629.56;;;24.39
26158;BMP280;67284;44.782;10.282;2023-07-29T01:43:30;100624.28;;;24.39
26158;BMP280;67284;44.782;10.282;2023-07-29T01:48:23;100619.03;;;24.39
26158;BMP280;67284;44.782;10.282;2023-07-29T01:53:15;100620.94;;;24.37
26158;BMP280;67284;44.782;10.282;2023-07-29T01:58:07;100621.13;;;24.34
26158;BMP280;67284;44.782;10.282;2023-07-29T02:03:01;100634.91;;;24.38
26158;BMP280;67284;44.782;10.282;2023-07-29T02:07:53;100645.31;;;24.39
26158;BMP280;67284;44.782;10.282;2023-07-29T02:12:45;100642.53;;;24.42
26158;BMP280;67284;44.782;10.282;2023-07-29T02:17:36;100645.16;;;24.42
26158;BMP280;67284;44.782;10.282;2023-07-29T02:22:29;100653.75;;;24.44
26158;BMP280;67284;44.782;10.282;2023-07-29T02:27:21;100650.31;;;24.44
26158;BMP280;67284;44.782;10.282;2023-07-29T02:32:13;100661.75;;;24.43
26158;BMP280;67284;44.782;10.282;2023-07-29T02:37:04;100660.06;;;24.42
26158;BMP280;67284;44.782;10.282;2023-07-29T02:41:56;100657.53;;;24.40
26158;BMP280;67284;44.782;10.282;2023-07-29T02:46:50;100652.28;;;24.40
26158;BMP280;67284;44.782;10.282;2023-07-29T02:51:43;100653.97;;;24.41
26158;BMP280;67284;44.782;10.282;2023-07-29T02:56:35;100649.53;;;24.42
26158;BMP280;67284;44.782;10.282;2023-07-29T03:01:27;100647.84;;;24.41
26158;BMP280;67284;44.782;10.282;2023-07-29T03:06:19;100661.09;;;24.39
26158;BMP280;67284;44.782;10.282;2023-07-29T03:11:15;100659.44;;;24.38
26158;BMP280;67284;44.782;10.282;2023-07-29T03:16:10;100655.84;;;24.39
26158;BMP280;67284;44.782;10.282;2023-07-29T03:21:04;100675.94;;;24.40
26158;BMP280;67284;44.782;10.282;2023-07-29T03:25:57;100680.47;;;24.38
26158;BMP280;67284;44.782;10.282;2023-07-29T03:30:50;100676.06;;;24.39
26158;BMP280;67284;44.782;10.282;2023-07-29T03:35:42;100668.28;;;24.37
26158;BMP280;67284;44.782;10.282;2023-07-29T03:40:36;100673.53;;;24.37
26158;BMP280;67284;44.782;10.282;2023-07-29T03:45:28;100664.81;;;24.37
26158;BMP280;67284;44.782;10.282;2023-07-29T03:50:20;100656.06;;;24.36
26158;BMP280;67284;44.782;10.282;2023-07-29T03:55:11;100646.50;;;24.35
26158;BMP280;67284;44.782;10.282;2023-07-29T04:00:04;100657.84;;;24.36
26158;BMP280;67284;44.782;10.282;2023-07-29T04:05:06;100680.59;;;24.37
26158;BMP280;67284;44.782;10.282;2023-07-29T04:10:01;100693.72;;;24.37
26158;BMP280;67284;44.782;10.282;2023-07-29T04:14:53;100690.13;;;24.38
26158;BMP280;67284;44.782;10.282;2023-07-29T04:19:45;100689.31;;;24.37
26158;BMP280;67284;44.782;10.282;2023-07-29T04:24:38;100691.84;;;24.39
26158;BMP280;67284;44.782;10.282;2023-07-29T04:29:30;100694.34;;;24.40
26158;BMP280;67284;44.782;10.282;2023-07-29T04:34:21;100694.34;;;24.40
26158;BMP280;67284;44.782;10.282;2023-07-29T04:39:14;100702.16;;;24.42
26158;BMP280;67284;44.782;10.282;2023-07-29T04:44:06;100710.13;;;24.40
26158;BMP280;67284;44.782;10.282;2023-07-29T04:48:58;100710.91;;;24.42
26158;BMP280;67284;44.782;10.282;2023-07-29T04:53:50;100713.53;;;24.42
26158;BMP280;67284;44.782;10.282;2023-07-29T04:58:42;100737.19;;;24.42
26158;BMP280;67284;44.782;10.282;2023-07-29T05:03:34;100724.03;;;24.42
26158;BMP280;67284;44.782;10.282;2023-07-29T05:08:27;100718.03;;;24.40
26158;BMP280;67284;44.782;10.282;2023-07-29T05:13:19;100723.19;;;24.42
26158;BMP280;67284;44.782;10.282;2023-07-29T05:18:11;100724.03;;;24.42
26158;BMP280;67284;44.782;10.282;2023-07-29T05:23:03;100734.56;;;24.42
26158;BMP280;67284;44.782;10.282;2023-07-29T05:27:55;100747.63;;;24.44
26158;BMP280;67284;44.782;10.282;2023-07-29T05:32:47;100743.91;;;24.46
26158;BMP280;67284;44.782;10.282;2023-07-29T05:37:39;100748.34;;;24.46
26158;BMP280;67284;44.782;10.282;2023-07-29T05:42:34;100752.66;;;24.47
26158;BMP280;67284;44.782;10.282;2023-07-29T05:47:26;100753.50;;;24.47
26158;BMP280;67284;44.782;10.282;2023-07-29T05:52:18;100744.66;;;24.48
26158;BMP280;67284;44.782;10.282;2023-07-29T05:57:11;100756.03;;;24.49
26158;BMP280;67284;44.782;10.282;2023-07-29T06:02:03;100756.84;;;24.49
26158;BMP280;67284;44.782;10.282;2023-07-29T06:06:56;100751.59;;;24.49
26158;BMP280;67284;44.782;10.282;2023-07-29T06:11:48;100751.59;;;24.49
26158;BMP280;67284;44.782;10.282;2023-07-29T06:16:40;100749.84;;;24.50
26158;BMP280;67284;44.782;10.282;2023-07-29T06:21:32;100750.66;;;24.50
26158;BMP280;67284;44.782;10.282;2023-07-29T06:26:24;100755.94;;;24.50
26158;BMP280;67284;44.782;10.282;2023-07-29T06:31:15;100764.69;;;24.51
26158;BMP280;67284;44.782;10.282;2023-07-29T06:36:07;100752.25;;;24.53
26158;BMP280;67284;44.782;10.282;2023-07-29T06:40:59;100760.16;;;24.53
26158;BMP280;67284;44.782;10.282;2023-07-29T06:45:51;100760.03;;;24.54
26158;BMP280;67284;44.782;10.282;2023-07-29T06:50:43;100761.94;;;24.52
26158;BMP280;67284;44.782;10.282;2023-07-29T06:55:35;100753.09;;;24.53
26158;BMP280;67284;44.782;10.282;2023-07-29T07:00:27;100760.03;;;24.54
26158;BMP280;67284;44.782;10.282;2023-07-29T07:05:19;100760.88;;;24.55
26158;BMP280;67284;44.782;10.282;2023-07-29T07:10:10;100759.84;;;24.57
26158;BMP280;67284;44.782;10.282;2023-07-29T07:15:03;100754.56;;;24.57
26158;BMP280;67284;44.782;10.282;2023-07-29T07:19:54;100757.09;;;24.59
26158;BMP280;67284;44.782;10.282;2023-07-29T07:24:46;100756.28;;;24.58
26158;BMP280;67284;44.782;10.282;2023-07-29T07:29:38;100746.38;;;24.62
26158;BMP280;67284;44.782;10.282;2023-07-29T07:34:30;100753.34;;;24.63
26158;BMP280;67284;44.782;10.282;2023-07-29T07:39:22;100747.25;;;24.62
26158;BMP280;67284;44.782;10.282;2023-07-29T07:44:14;100753.13;;;24.65
26158;BMP280;67284;44.782;10.282;2023-07-29T07:49:09;100755.75;;;24.65
26158;BMP280;67284;44.782;10.282;2023-07-29T07:54:01;100754.81;;;24.66
26158;BMP280;67284;44.782;10.282;2023-07-29T07:58:53;100762.63;;;24.68
26158;BMP280;67284;44.782;10.282;2023-07-29T08:03:44;100762.28;;;24.72
26158;BMP280;67284;44.782;10.282;2023-07-29T08:08:36;100756.22;;;24.72
26158;BMP280;67284;44.782;10.282;2023-07-29T08:13:28;100750.06;;;24.71
26158;BMP280;67284;44.782;10.282;2023-07-29T08:18:20;100746.50;;;24.72
26158;BMP280;67284;44.782;10.282;2023-07-29T08:23:12;100749.81;;;24.76
26158;BMP280;67284;44.782;10.282;2023-07-29T08:28:04;100733.69;;;24.80
26158;BMP280;67284;44.782;10.282;2023-07-29T08:32:56;100727.28;;;24.84
26158;BMP280;67284;44.782;10.282;2023-07-29T08:37:48;100733.16;;;24.88
26158;BMP280;67284;44.782;10.282;2023-07-29T08:42:41;100730.22;;;24.92
26158;BMP280;67284;44.782;10.282;2023-07-29T08:47:33;100720.13;;;24.99
26158;BMP280;67284;44.782;10.282;2023-07-29T08:52:29;100719.31;;;24.98
26158;BMP280;67284;44.782;10.282;2023-07-29T08:57:22;100722.47;;;25.03
26158;BMP280;67284;44.782;10.282;2023-07-29T09:02:14;100726.91;;;25.03
26158;BMP280;67284;44.782;10.282;2023-07-29T09:07:07;100721.22;;;25.09
26158;BMP280;67284;44.782;10.282;2023-07-29T09:11:59;100726.47;;;25.09
26158;BMP280;67284;44.782;10.282;2023-07-29T09:16:50;100728.19;;;25.10
26158;BMP280;67284;44.782;10.282;2023-07-29T09:21:47;100727.41;;;25.08
26158;BMP280;67284;44.782;10.282;2023-07-29T09:26:40;100719.53;;;25.08
26158;BMP280;67284;44.782;10.282;2023-07-29T09:31:39;100716.91;;;25.08
26158;BMP280;67284;44.782;10.282;2023-07-29T09:36:33;100710.69;;;25.09
26158;BMP280;67284;44.782;10.282;2023-07-29T09:41:29;100717.66;;;25.10
26158;BMP280;67284;44.782;10.282;2023-07-29T09:46:25;100720.56;;;25.17
26158;BMP280;67284;44.782;10.282;2023-07-29T09:51:18;100725.66;;;25.20
26158;BMP280;67284;44.782;10.282;2023-07-29T09:56:10;100716.69;;;25.23
26158;BMP280;67284;44.782;10.282;2023-07-29T10:01:02;100711.09;;;25.27
26158;BMP280;67284;44.782;10.282;2023-07-29T10:05:54;100700.97;;;25.34
26158;BMP280;67284;44.782;10.282;2023-07-29T10:10:46;100696.34;;;25.37
26158;BMP280;67284;44.782;10.282;2023-07-29T10:15:39;100705.41;;;25.33
26158;BMP280;67284;44.782;10.282;2023-07-29T10:20:32;100693.41;;;25.42
26158;BMP280;67284;44.782;10.282;2023-07-29T10:25:30;100693.41;;;25.42
26158;BMP280;67284;44.782;10.282;2023-07-29T10:30:24;100685.94;;;25.36
26158;BMP280;67284;44.782;10.282;2023-07-29T10:35:16;100681.06;;;25.42
26158;BMP280;67284;44.782;10.282;2023-07-29T10:40:10;100671.09;;;25.58
26158;BMP280;67284;44.782;10.282;2023-07-29T10:45:21;100675.66;;;25.69
26158;BMP280;67284;44.782;10.282;2023-07-29T10:50:18;100659.28;;;25.76
26158;BMP280;67284;44.782;10.282;2023-07-29T10:55:36;100654.81;;;25.89
26158;BMP280;67284;44.782;10.282;2023-07-29T11:00:30;100657.84;;;25.95
26158;BMP280;67284;44.782;10.282;2023-07-29T11:05:22;100655.03;;;26.09
26158;BMP280;67284;44.782;10.282;2023-07-29T11:10:15;100643.00;;;26.28
26158;BMP280;67284;44.782;10.282;2023-07-29T11:20:03;100641.88;;;26.32
26158;BMP280;67284;44.782;10.282;2023-07-29T11:24:55;100636.72;;;26.42
26158;BMP280;67284;44.782;10.282;2023-07-29T11:29:48;100626.44;;;26.26
26158;BMP280;67284;44.782;10.282;2023-07-29T11:34:40;100622.34;;;26.12
26158;BMP280;67284;44.782;10.282;2023-07-29T11:39:33;100624.22;;;26.10
26158;BMP280;67284;44.782;10.282;2023-07-29T11:44:25;100614.56;;;26.21
26158;BMP280;67284;44.782;10.282;2023-07-29T11:49:16;100612.66;;;26.23
26158;BMP280;67284;44.782;10.282;2023-07-29T11:54:08;100614.47;;;26.23
26158;BMP280;67284;44.782;10.282;2023-07-29T11:59:01;100607.03;;;26.27
26158;BMP280;67284;44.782;10.282;2023-07-29T12:03:55;100603.00;;;26.34
26158;BMP280;67284;44.782;10.282;2023-07-29T12:08:48;100591.53;;;26.35
26158;BMP280;67284;44.782;10.282;2023-07-29T12:13:43;100591.03;;;26.41
26158;BMP280;67284;44.782;10.282;2023-07-29T12:18:36;100578.31;;;26.35
26158;BMP280;67284;44.782;10.282;2023-07-29T12:23:28;100568.00;;;26.43
26158;BMP280;67284;44.782;10.282;2023-07-29T12:28:22;100566.53;;;26.28
26158;BMP280;67284;44.782;10.282;2023-07-29T12:33:30;100566.25;;;26.55
26158;BMP280;67284;44.782;10.282;2023-07-29T12:38:22;100559.41;;;26.74
26158;BMP280;67284;44.782;10.282;2023-07-29T12:43:14;100555.25;;;26.93
26158;BMP280;67284;44.782;10.282;2023-07-29T12:48:06;100549.84;;;27.06
26158;BMP280;67284;44.782;10.282;2023-07-29T12:52:58;100549.84;;;27.06
26158;BMP280;67284;44.782;10.282;2023-07-29T12:57:50;100541.47;;;27.01
26158;BMP280;67284;44.782;10.282;2023-07-29T13:02:42;100546.25;;;26.96
26158;BMP280;67284;44.782;10.282;2023-07-29T13:07:34;100526.34;;;26.92
26158;BMP280;67284;44.782;10.282;2023-07-29T13:12:25;100523.06;;;26.99
26158;BMP280;67284;44.782;10.282;2023-07-29T13:17:17;100516.84;;;27.11
26158;BMP280;67284;44.782;10.282;2023-07-29T13:22:09;100511.66;;;27.21
26158;BMP280;67284;44.782;10.282;2023-07-29T13:27:01;100504.91;;;27.28
26158;BMP280;67284;44.782;10.282;2023-07-29T13:31:53;100498.91;;;27.26
26158;BMP280;67284;44.782;10.282;2023-07-29T13:36:45;100493.03;;;27.22
26158;BMP280;67284;44.782;10.282;2023-07-29T13:41:37;100480.22;;;27.07
26158;BMP280;67284;44.782;10.282;2023-07-29T13:46:28;100490.03;;;27.16
26158;BMP280;67284;44.782;10.282;2023-07-29T13:51:20;100480.94;;;27.09
26158;BMP280;67284;44.782;10.282;2023-07-29T13:56:12;100473.03;;;27.09
26158;BMP280;67284;44.782;10.282;2023-07-29T14:01:04;100477.09;;;27.13
26158;BMP280;67284;44.782;10.282;2023-07-29T14:05:56;100465.78;;;27.22
26158;BMP280;67284;44.782;10.282;2023-07-29T14:10:49;100460.28;;;27.25
26158;BMP280;67284;44.782;10.282;2023-07-29T14:15:41;100455.94;;;27.24
26158;BMP280;67284;44.782;10.282;2023-07-29T14:20:33;100451.63;;;27.23
26158;BMP280;67284;44.782;10.282;2023-07-29T14:25:25;100453.75;;;27.28
26158;BMP280;67284;44.782;10.282;2023-07-29T14:30:16;100445.59;;;27.31
26158;BMP280;67284;44.782;10.282;2023-07-29T14:35:08;100448.81;;;27.35
26158;BMP280;67284;44.782;10.282;2023-07-29T14:40:01;100454.09;;;27.35
26158;BMP280;67284;44.782;10.282;2023-07-29T14:44:54;100439.53;;;27.40
26158;BMP280;67284;44.782;10.282;2023-07-29T14:49:46;100443.44;;;27.26
26158;BMP280;67284;44.782;10.282;2023-07-29T14:54:38;100442.22;;;27.29
26158;BMP280;67284;44.782;10.282;2023-07-29T14:59:30;100435.25;;;27.28
26158;BMP280;67284;44.782;10.282;2023-07-29T15:04:22;100433.34;;;27.30
26158;BMP280;67284;44.782;10.282;2023-07-29T15:09:13;100438.59;;;27.41
26158;BMP280;67284;44.782;10.282;2023-07-29T15:14:05;100434.47;;;27.48
26158;BMP280;67284;44.782;10.282;2023-07-29T15:18:57;100419.88;;;27.33
26158;BMP280;67284;44.782;10.282;2023-07-29T15:23:49;100418.53;;;27.39
26158;BMP280;67284;44.782;10.282;2023-07-29T15:28:41;100422.34;;;27.46
26158;BMP280;67284;44.782;10.282;2023-07-29T15:33:33;100406.47;;;27.57
26158;BMP280;67284;44.782;10.282;2023-07-29T15:38:26;100402.16;;;27.56
26158;BMP280;67284;44.782;10.282;2023-07-29T15:43:18;100402.16;;;27.45
26158;BMP280;67284;44.782;10.282;2023-07-29T15:48:10;100393.03;;;27.49
26158;BMP280;67284;44.782;10.282;2023-07-29T15:53:02;100396.28;;;27.52
26158;BMP280;67284;44.782;10.282;2023-07-29T15:57:54;100378.13;;;27.48
26158;BMP280;67284;44.782;10.282;2023-07-29T16:02:46;100370.94;;;27.50
26158;BMP280;67284;44.782;10.282;2023-07-29T16:07:38;100379.00;;;27.48
26158;BMP280;67284;44.782;10.282;2023-07-29T16:12:30;100370.84;;;27.40
26158;BMP280;67284;44.782;10.282;2023-07-29T16:17:25;100372.19;;;27.35
26158;BMP280;67284;44.782;10.282;2023-07-29T16:22:17;100373.03;;;27.35
26158;BMP280;67284;44.782;10.282;2023-07-29T16:27:08;100379.22;;;27.45
26158;BMP280;67284;44.782;10.282;2023-07-29T16:32:00;100382.34;;;27.50
26158;BMP280;67284;44.782;10.282;2023-07-29T16:36:52;100374.41;;;27.50
26158;BMP280;67284;44.782;10.282;2023-07-29T16:41:44;100375.50;;;27.48
26158;BMP280;67284;44.782;10.282;2023-07-29T16:46:39;100369.38;;;27.47
26158;BMP280;67284;44.782;10.282;2023-07-29T16:51:31;100380.00;;;27.36
26158;BMP280;67284;44.782;10.282;2023-07-29T16:56:23;100370.78;;;27.31
26158;BMP280;67284;44.782;10.282;2023-07-29T17:01:15;100380.50;;;27.30
26158;BMP280;67284;44.782;10.282;2023-07-29T17:06:06;100379.44;;;27.33
26158;BMP280;67284;44.782;10.282;2023-07-29T17:10:58;100374.75;;;27.26
26158;BMP280;67284;44.782;10.282;2023-07-29T17:15:50;100375.28;;;27.20
26158;BMP280;67284;44.782;10.282;2023-07-29T17:20:42;100365.66;;;27.19
26158;BMP280;67284;44.782;10.282;2023-07-29T17:25:34;100370.69;;;27.22
26158;BMP280;67284;44.782;10.282;2023-07-29T17:30:26;100362.59;;;27.14
26158;BMP280;67284;44.782;10.282;2023-07-29T17:35:19;100366.66;;;27.18
26158;BMP280;67284;44.782;10.282;2023-07-29T17:40:11;100360.66;;;27.16
26158;BMP280;67284;44.782;10.282;2023-07-29T17:45:04;100361.25;;;27.19
26158;BMP280;67284;44.782;10.282;2023-07-29T17:49:56;100365.78;;;27.17
26158;BMP280;67284;44.782;10.282;2023-07-29T17:54:48;100365.94;;;27.16
26158;BMP280;67284;44.782;10.282;2023-07-29T17:59:40;100366.44;;;27.10
26158;BMP280;67284;44.782;10.282;2023-07-29T18:04:32;100364.44;;;27.02
26158;BMP280;67284;44.782;10.282;2023-07-29T18:09:24;100367.31;;;26.99
26158;BMP280;67284;44.782;10.282;2023-07-29T18:14:16;100359.06;;;26.93
26158;BMP280;67284;44.782;10.282;2023-07-29T18:19:08;100370.09;;;26.87
26158;BMP280;67284;44.782;10.282;2023-07-29T18:24:00;100369.75;;;26.80
26158;BMP280;67284;44.782;10.282;2023-07-29T18:28:52;100374.44;;;26.77
26158;BMP280;67284;44.782;10.282;2023-07-29T18:33:43;100376.72;;;26.71
26158;BMP280;67284;44.782;10.282;2023-07-29T18:38:35;100371.72;;;26.68
26158;BMP280;67284;44.782;10.282;2023-07-29T18:43:28;100375.41;;;26.65
26158;BMP280;67284;44.782;10.282;2023-07-29T18:48:20;100382.84;;;26.60
26158;BMP280;67284;44.782;10.282;2023-07-29T18:53:12;100383.34;;;26.54
26158;BMP280;67284;44.782;10.282;2023-07-29T18:58:04;100384.56;;;26.50
26158;BMP280;67284;44.782;10.282;2023-07-29T19:02:56;100393.44;;;26.49
26158;BMP280;67284;44.782;10.282;2023-07-29T19:07:47;100397.16;;;26.47
26158;BMP280;67284;44.782;10.282;2023-07-29T19:12:39;100411.56;;;26.43
26158;BMP280;67284;44.782;10.282;2023-07-29T19:17:31;100416.25;;;26.39
26158;BMP280;67284;44.782;10.282;2023-07-29T19:22:23;100417.31;;;26.37
26158;BMP280;67284;44.782;10.282;2023-07-29T19:27:15;100420.91;;;26.36
26158;BMP280;67284;44.782;10.282;2023-07-29T19:32:07;100431.69;;;26.33
26158;BMP280;67284;44.782;10.282;2023-07-29T19:36:59;100430.34;;;26.27
26158;BMP280;67284;44.782;10.282;2023-07-29T19:41:51;100427.94;;;26.24
26158;BMP280;67284;44.782;10.282;2023-07-29T19:46:43;100430.81;;;26.22
26158;BMP280;67284;44.782;10.282;2023-07-29T19:51:35;100437.28;;;26.18
26158;BMP280;67284;44.782;10.282;2023-07-29T19:56:27;100449.66;;;26.17
26158;BMP280;67284;44.782;10.282;2023-07-29T20:01:19;100446.25;;;26.15
26158;BMP280;67284;44.782;10.282;2023-07-29T20:06:11;100442.81;;;26.15
26158;BMP280;67284;44.782;10.282;2023-07-29T20:11:03;100450.84;;;26.13
26158;BMP280;67284;44.782;10.282;2023-07-29T20:15:55;100459.81;;;26.11
26158;BMP280;67284;44.782;10.282;2023-07-29T20:20:48;100469.53;;;26.10
26158;BMP280;67284;44.782;10.282;2023-07-29T20:25:39;100479.34;;;26.08
26158;BMP280;67284;44.782;10.282;2023-07-29T20:30:31;100461.00;;;26.07
26158;BMP280;67284;44.782;10.282;2023-07-29T20:35:24;100472.50;;;26.06
26158;BMP280;67284;44.782;10.282;2023-07-29T20:40:16;100464.59;;;26.06
26158;BMP280;67284;44.782;10.282;2023-07-29T20:45:08;100464.81;;;26.03
26158;BMP280;67284;44.782;10.282;2023-07-29T20:50:00;100472.84;;;26.01
26158;BMP280;67284;44.782;10.282;2023-07-29T20:54:52;100472.13;;;25.99
26158;BMP280;67284;44.782;10.282;2023-07-29T20:59:44;100478.47;;;25.97
26158;BMP280;67284;44.782;10.282;2023-07-29T21:04:36;100477.75;;;25.95
26158;BMP280;67284;44.782;10.282;2023-07-29T21:09:28;100482.28;;;25.93
26158;BMP280;67284;44.782;10.282;2023-07-29T21:14:22;100492.13;;;25.91
26158;BMP280;67284;44.782;10.282;2023-07-29T21:19:15;100489.72;;;25.88
26158;BMP280;67284;44.782;10.282;2023-07-29T21:24:06;100489.84;;;25.86
26158;BMP280;67284;44.782;10.282;2023-07-29T21:28:58;100496.19;;;25.84
26158;BMP280;67284;44.782;10.282;2023-07-29T21:33:50;100492.78;;;25.82
26158;BMP280;67284;44.782;10.282;2023-07-29T21:38:42;100485.88;;;25.81
26158;BMP280;67284;44.782;10.282;2023-07-29T21:43:34;100490.28;;;25.80
26158;BMP280;67284;44.782;10.282;2023-07-29T21:48:25;100483.59;;;25.76
26158;BMP280;67284;44.782;10.282;2023-07-29T21:53:17;100492.44;;;25.75
26158;BMP280;67284;44.782;10.282;2023-07-29T21:58:09;100500.47;;;25.74
26158;BMP280;67284;44.782;10.282;2023-07-29T22:03:01;100495.19;;;25.74
26158;BMP280;67284;44.782;10.282;2023-07-29T22:07:53;100493.50;;;25.73
26158;BMP280;67284;44.782;10.282;2023-07-29T22:12:44;100495.19;;;25.74
26158;BMP280;67284;44.782;10.282;2023-07-29T22:17:37;100485.72;;;25.71
26158;BMP280;67284;44.782;10.282;2023-07-29T22:22:28;100486.53;;;25.72
26158;BMP280;67284;44.782;10.282;2023-07-29T22:27:20;100475.16;;;25.71
26158;BMP280;67284;44.782;10.282;2023-07-29T22:32:12;100479.63;;;25.71
26158;BMP280;67284;44.782;10.282;2023-07-29T22:37:05;100479.50;;;25.72
26158;BMP280;67284;44.782;10.282;2023-07-29T22:41:59;100473.25;;;25.73
26158;BMP280;67284;44.782;10.282;2023-07-29T22:46:51;100459.25;;;25.73
26158;BMP280;67284;44.782;10.282;2023-07-29T22:51:43;100468.84;;;25.74
26158;BMP280;67284;44.782;10.282;2023-07-29T22:56:35;100460.19;;;25.72
26158;BMP280;67284;44.782;10.282;2023-07-29T23:01:27;100477.69;;;25.73
26158;BMP280;67284;44.782;10.282;2023-07-29T23:06:19;100480.31;;;25.73
26158;BMP280;67284;44.782;10.282;2023-07-29T23:11:11;100488.22;;;25.73
26158;BMP280;67284;44.782;10.282;2023-07-29T23:16:03;100484.88;;;25.71
26158;BMP280;67284;44.782;10.282;2023-07-29T23:20:55;100490.28;;;25.70
26158;BMP280;67284;44.782;10.282;2023-07-29T23:25:47;100514.94;;;25.69
26158;BMP280;67284;44.782;10.282;2023-07-29T23:30:39;100504.28;;;25.70
26158;BMP280;67284;44.782;10.282;2023-07-29T23:35:31;100504.50;;;25.67
26158;BMP280;67284;44.782;10.282;2023-07-29T23:40:23;100514.38;;;25.64
26158;BMP280;67284;44.782;10.282;2023-07-29T23:45:15;100530.19;;;25.64
26158;BMP280;67284;44.782;10.282;2023-07-29T23:50:07;100535.56;;;25.62
26158;BMP280;67284;44.782;10.282;2023-07-29T23:55:00;100527.91;;;25.59
26158;BMP280;67284;44.782;10.282;2023-07-29T23:59:52;100529.81;;;25.57
